Time;durP1;ratioP1;P1;durP2;ratioP2;P2;SDS_P1;SDS_P2;PMS_P1;PMS_P2;Temp;Humidity;BMP_temperature;BMP_pressure;BME280_temperature;BME280_humidity;BME280_pressure;Samples;Min_cycle;Max_cycle;Signal;HPM_P1;HPM_P2
2023/07/29 00:00:52;;;;;;;15.90;7.15;;;;;;;14.75;100.00;95639.56;2098094;28;20082;-63
2023/07/29 00:01:54;;;;;;;15.25;7.10;;;;;;;14.74;100.00;95632.66;2098179;28;20052;-57
2023/07/29 00:02:55;;;;;;;11.80;6.85;;;;;;;14.74;100.00;95635.25;2098816;28;20384;-57
2023/07/29 00:03:56;;;;;;;12.40;6.53;;;;;;;14.73;100.00;95625.75;2098872;28;20046;-57
2023/07/29 00:04:58;;;;;;;10.45;6.35;;;;;;;14.72;100.00;95626.69;2098194;28;20412;-57
2023/07/29 00:05:59;;;;;;;11.35;7.45;;;;;;;14.71;100.00;95632.03;2097995;28;20063;-57
2023/07/29 00:07:00;;;;;;;11.45;7.22;;;;;;;14.68;100.00;95630.47;2098893;28;20048;-57
2023/07/29 00:08:01;;;;;;;10.88;7.40;;;;;;;14.68;100.00;95634.84;2098950;28;20408;-57
2023/07/29 00:09:02;;;;;;;9.35;6.90;;;;;;;14.67;100.00;95630.56;2098903;28;20044;-57
2023/07/29 00:10:04;;;;;;;8.98;6.75;;;;;;;14.68;100.00;95634.84;2089792;28;20048;-57
2023/07/29 00:11:05;;;;;;;13.85;7.85;;;;;;;14.66;100.00;95636.72;2090405;28;20060;-56
2023/07/29 00:12:06;;;;;;;11.85;7.18;;;;;;;14.62;100.00;95637.88;2098949;28;20043;-60
2023/07/29 00:13:08;;;;;;;13.90;7.25;;;;;;;14.53;100.00;95623.66;2098680;28;20040;-60
2023/07/29 00:14:09;;;;;;;16.05;7.60;;;;;;;14.57;100.00;95630.38;2098708;28;20495;-60
2023/07/29 00:15:10;;;;;;;13.40;7.22;;;;;;;14.53;100.00;95624.50;2098690;28;20036;-60
2023/07/29 00:16:11;;;;;;;11.38;7.40;;;;;;;14.58;100.00;95633.81;2098815;28;20040;-60
2023/07/29 00:17:13;;;;;;;11.68;7.20;;;;;;;14.54;100.00;95631.41;2098713;28;20502;-60
2023/07/29 00:18:14;;;;;;;16.65;8.32;;;;;;;14.54;100.00;95635.78;2098607;28;20047;-60
2023/07/29 00:19:15;;;;;;;15.23;7.95;;;;;;;14.51;100.00;95633.34;2098898;28;20138;-60
2023/07/29 00:20:16;;;;;;;12.02;7.40;;;;;;;14.50;100.00;95634.31;2098608;28;20472;-61
2023/07/29 00:21:17;;;;;;;15.85;7.75;;;;;;;14.49;100.00;95643.09;2098647;28;20037;-60
2023/07/29 00:22:18;;;;;;;15.00;8.10;;;;;;;14.48;100.00;95636.19;2098301;28;20059;-60
2023/07/29 00:23:19;;;;;;;13.13;6.93;;;;;;;14.48;100.00;95636.19;2098601;28;20404;-60
2023/07/29 00:24:20;;;;;;;12.95;7.88;;;;;;;14.44;100.00;95635.56;2098754;28;20044;-60
2023/07/29 00:25:21;;;;;;;11.20;7.75;;;;;;;14.36;100.00;95619.59;2098823;28;20044;-60
2023/07/29 00:26:25;;;;;;;12.30;7.63;;;;;;;14.40;100.00;95626.25;2098914;28;20040;-74
2023/07/29 00:27:26;;;;;;;11.90;7.07;;;;;;;14.39;100.00;95627.19;2098315;28;20057;-73
2023/07/29 00:28:29;;;;;;;18.42;8.07;;;;;;;14.37;100.00;95625.63;2089505;28;20500;-74
2023/07/29 00:29:31;;;;;;;14.93;7.80;;;;;;;14.36;100.00;95616.97;2089763;28;20048;-74
2023/07/29 00:30:32;;;;;;;10.90;7.45;;;;;;;14.37;100.00;95615.19;2089332;28;20060;-73
2023/07/29 00:31:33;;;;;;;14.30;8.73;;;;;;;14.37;100.00;95616.00;2089812;28;20508;-63
2023/07/29 00:32:34;;;;;;;11.82;7.75;;;;;;;14.27;100.00;95600.16;2098774;28;20047;-62
2023/07/29 00:33:36;;;;;;;13.25;7.75;;;;;;;14.31;100.00;95619.88;2089622;28;20040;-63
2023/07/29 00:34:37;;;;;;;14.00;8.02;;;;;;;14.29;100.00;95613.94;2081612;28;20535;-63
2023/07/29 00:35:38;;;;;;;13.82;8.23;;;;;;;14.23;100.00;95611.72;2089776;28;20047;-63
2023/07/29 00:36:39;;;;;;;11.38;8.65;;;;;;;14.26;100.00;95618.53;2089811;28;20060;-63
2023/07/29 00:37:40;;;;;;;13.30;8.75;;;;;;;14.28;100.00;95614.03;2089838;28;20063;-63
2023/07/29 00:38:41;;;;;;;13.68;7.97;;;;;;;14.29;100.00;95624.38;2089904;28;20045;-63
2023/07/29 00:39:43;;;;;;;11.02;8.10;;;;;;;14.29;100.00;95619.16;2098402;28;20052;-62
2023/07/29 00:40:44;;;;;;;13.90;8.65;;;;;;;14.30;100.00;95618.22;2089668;28;20057;-62
2023/07/29 00:41:45;;;;;;;16.20;9.02;;;;;;;14.27;100.00;95613.22;2089866;28;20049;-74
2023/07/29 00:42:46;;;;;;;15.63;9.50;;;;;;;14.18;100.00;95610.38;2098446;28;20052;-75
2023/07/29 00:43:47;;;;;;;12.43;8.65;;;;;;;14.21;100.00;95616.22;2098477;28;20124;-73
2023/07/29 00:44:48;;;;;;;16.85;9.20;;;;;;;14.17;100.00;95617.38;2098447;28;20480;-74
2023/07/29 00:45:49;;;;;;;11.80;8.10;;;;;;;14.15;100.00;95628.88;2089562;28;20056;-73
2023/07/29 00:46:52;;;;;;;18.73;9.13;;;;;;;14.12;100.00;95619.47;2073552;28;20117;-74
2023/07/29 00:47:55;;;;;;;17.00;8.82;;;;;;;14.08;100.00;95615.38;2082313;28;20045;-74
2023/07/29 00:48:56;;;;;;;19.35;9.57;;;;;;;14.08;100.00;95612.75;2089754;28;20048;-74
2023/07/29 00:49:58;;;;;;;17.50;8.38;;;;;;;14.05;100.00;95605.13;2073394;28;20093;-74
2023/07/29 00:50:59;;;;;;;17.77;9.10;;;;;;;14.04;100.00;95612.13;2073574;28;20053;-74
2023/07/29 00:52:02;;;;;;;13.40;9.02;;;;;;;14.01;100.00;95608.91;2081175;28;20049;-60
2023/07/29 00:53:03;;;;;;;14.25;9.13;;;;;;;14.02;100.00;95613.19;2081551;28;20473;-61
2023/07/29 00:54:04;;;;;;;13.50;8.40;;;;;;;14.03;100.00;95613.09;2081295;28;20041;-61
2023/07/29 00:55:06;;;;;;;15.88;8.63;;;;;;;14.05;100.00;95607.75;2073360;28;20041;-61
2023/07/29 00:56:07;;;;;;;14.32;8.77;;;;;;;14.06;100.00;95604.19;2089729;28;20048;-61
2023/07/29 00:57:08;;;;;;;15.57;9.43;;;;;;;14.05;100.00;95605.97;2089349;28;20048;-60
2023/07/29 00:58:10;;;;;;;13.82;8.88;;;;;;;14.00;100.00;95604.59;2081259;28;20520;-61
2023/07/29 00:59:11;;;;;;;17.98;9.15;;;;;;;13.97;100.00;95608.25;2089727;28;20044;-61
2023/07/29 01:00:12;;;;;;;12.45;8.60;;;;;;;13.94;100.00;95612.84;2098532;28;20052;-61
2023/07/29 01:01:13;;;;;;;13.82;8.95;;;;;;;13.92;100.00;95607.72;2098676;28;20044;-61
2023/07/29 01:02:15;;;;;;;14.93;9.23;;;;;;;13.89;100.00;95606.16;2080396;28;20053;-61
2023/07/29 01:03:17;;;;;;;15.40;9.38;;;;;;;13.89;100.00;95595.72;2064223;28;20058;-61
2023/07/29 01:04:18;;;;;;;16.20;9.10;;;;;;;13.93;100.00;95600.75;2081230;28;20041;-60
2023/07/29 01:05:19;;;;;;;17.40;9.40;;;;;;;13.93;100.00;95605.97;2089646;28;20044;-61
2023/07/29 01:06:20;;;;;;;16.33;9.30;;;;;;;13.96;100.00;95600.56;2073095;28;20054;-61
2023/07/29 01:07:30;;;;;;;17.05;10.43;;;;;;;13.85;100.00;95583.81;2081097;28;20086;-61
2023/07/29 01:08:38;;;;;;;16.35;9.32;;;;;;;13.92;100.00;95594.69;2098775;28;20047;-61
2023/07/29 01:09:58;;;;;;;18.98;10.52;;;;;;;13.87;100.00;95588.91;2089618;28;20037;-60
2023/07/29 01:15:31;;;;;;;15.55;9.68;;;;;;;13.86;100.00;95598.53;2476250;23;20038;-61
2023/07/29 01:16:42;;;;;;;17.08;10.35;;;;;;;13.85;100.00;95601.25;2032212;29;20063;-61
2023/07/29 01:17:47;;;;;;;14.25;10.25;;;;;;;13.84;100.00;95599.56;2029666;29;20036;-62
2023/07/29 01:18:48;;;;;;;16.38;10.25;;;;;;;13.82;100.00;95597.09;2042016;29;20059;-61
2023/07/29 01:20:05;;;;;;;14.18;10.35;;;;;;;13.85;100.00;95596.03;2049310;28;20052;-64
2023/07/29 01:21:07;;;;;;;15.63;10.60;;;;;;;13.83;100.00;95600.53;2055330;28;20043;-64
2023/07/29 01:22:08;;;;;;;19.33;11.52;;;;;;;13.84;100.00;95596.97;2056985;28;20038;-64
2023/07/29 01:23:10;;;;;;;16.80;10.30;;;;;;;13.84;100.00;95600.41;2049012;29;20035;-64
2023/07/29 01:24:11;;;;;;;15.02;10.35;;;;;;;13.88;100.00;95596.66;2049105;29;20054;-64
2023/07/29 01:25:13;;;;;;;20.90;11.07;;;;;;;13.90;100.00;95600.03;2048597;29;20062;-64
2023/07/29 01:26:14;;;;;;;24.58;10.50;;;;;;;13.90;100.00;95591.34;2049172;29;20047;-64
2023/07/29 01:27:15;;;;;;;16.95;10.27;;;;;;;13.95;100.00;95598.84;2049711;28;20055;-63
2023/07/29 01:28:16;;;;;;;18.52;10.60;;;;;;;13.94;100.00;95595.41;2048978;29;20070;-63
2023/07/29 01:29:17;;;;;;;15.10;10.18;;;;;;;13.91;100.00;95585.19;2041049;29;20521;-64
2023/07/29 01:30:19;;;;;;;16.52;10.30;;;;;;;13.90;100.00;95580.91;2041085;29;20051;-63
2023/07/29 01:31:37;;;;;;;22.20;10.30;;;;;;;13.93;100.00;95585.94;2041120;29;20059;-64
2023/07/29 01:32:44;;;;;;;15.95;10.63;;;;;;;13.95;100.00;95589.25;2027694;29;20049;-64
2023/07/29 01:33:52;;;;;;;16.00;10.05;;;;;;;13.96;100.00;95587.50;2029068;29;20499;-64
2023/07/29 01:34:59;;;;;;;15.43;10.57;;;;;;;13.91;100.00;95579.97;2049177;29;20038;-63
2023/07/29 01:36:02;;;;;;;17.95;11.40;;;;;;;13.92;100.00;95586.00;2056985;28;20049;-64
2023/07/29 01:37:03;;;;;;;18.90;11.05;;;;;;;13.89;100.00;95587.06;2048885;29;20395;-64
2023/07/29 01:38:07;;;;;;;20.65;11.05;;;;;;;13.86;100.00;95582.03;2049066;29;20043;-64
2023/07/29 01:39:08;;;;;;;18.80;10.75;;;;;;;13.84;100.00;95587.34;2041268;29;20499;-64
2023/07/29 01:40:09;;;;;;;16.58;10.05;;;;;;;13.84;100.00;95595.19;2041601;29;20035;-64
2023/07/29 01:41:11;;;;;;;14.48;10.82;;;;;;;13.76;100.00;95586.19;2042669;29;20400;-64
2023/07/29 01:42:12;;;;;;;15.60;10.90;;;;;;;13.84;100.00;95600.41;2042652;29;20062;-64
2023/07/29 01:43:13;;;;;;;17.30;10.82;;;;;;;13.80;100.00;95591.13;2042406;29;20055;-64
2023/07/29 01:44:14;;;;;;;20.98;9.98;;;;;;;13.83;100.00;95597.91;2042548;29;20051;-63
2023/07/29 01:45:15;;;;;;;18.75;11.35;;;;;;;13.83;100.00;95596.13;2034720;29;20377;-64
2023/07/29 01:46:17;;;;;;;18.02;10.27;;;;;;;13.81;100.00;95591.94;2042680;29;20099;-65
2023/07/29 01:47:18;;;;;;;15.48;10.00;;;;;;;13.76;100.00;95576.59;2042644;29;20499;-64
2023/07/29 01:48:19;;;;;;;19.50;10.40;;;;;;;13.83;100.00;95583.09;2050566;29;20050;-65
2023/07/29 01:49:22;;;;;;;15.00;11.02;;;;;;;13.80;100.00;95587.69;2050250;29;20067;-64
2023/07/29 01:50:23;;;;;;;23.65;11.50;;;;;;;13.78;100.00;95590.38;2042769;29;20078;-63
2023/07/29 01:51:25;;;;;;;17.05;11.10;;;;;;;13.76;100.00;95586.19;2050511;29;20404;-64
2023/07/29 01:52:26;;;;;;;12.80;10.02;;;;;;;13.76;100.00;95589.63;2050896;29;20538;-65
2023/07/29 01:53:28;;;;;;;18.17;10.73;;;;;;;13.75;100.00;95584.53;2051041;29;20062;-65
2023/07/29 01:54:29;;;;;;;18.63;11.40;;;;;;;13.71;100.00;95573.44;2050971;29;20043;-65
2023/07/29 01:55:30;;;;;;;18.83;11.50;;;;;;;13.74;100.00;95583.72;2050558;28;20431;-65
2023/07/29 01:56:31;;;;;;;16.15;11.38;;;;;;;13.76;100.00;95584.41;2042715;29;20083;-65
2023/07/29 01:57:32;;;;;;;16.42;10.85;;;;;;;13.77;100.00;95582.66;2050511;29;20407;-65
2023/07/29 01:58:33;;;;;;;20.75;10.85;;;;;;;13.79;100.00;95575.56;2050298;29;20046;-64
2023/07/29 01:59:35;;;;;;;17.77;11.60;;;;;;;13.79;100.00;95586.00;2050614;29;20062;-65
2023/07/29 02:00:36;;;;;;;16.63;11.68;;;;;;;13.77;100.00;95586.09;2042707;29;20412;-64
2023/07/29 02:01:37;;;;;;;15.25;10.05;;;;;;;13.78;100.00;95577.34;2050515;28;20487;-64
2023/07/29 02:02:38;;;;;;;17.95;10.63;;;;;;;13.81;100.00;95578.91;2050313;29;20442;-65
2023/07/29 02:03:39;;;;;;;19.63;10.30;;;;;;;13.81;100.00;95573.69;2050277;29;20047;-64
2023/07/29 02:04:40;;;;;;;18.15;10.40;;;;;;;13.81;100.00;95571.91;2050239;29;20055;-64
2023/07/29 02:05:43;;;;;;;18.25;9.43;;;;;;;13.83;100.00;95572.66;2050369;29;20457;-64
2023/07/29 02:06:44;;;;;;;17.05;10.73;;;;;;;13.82;100.00;95576.19;2058490;28;20058;-64
2023/07/29 02:07:45;;;;;;;18.00;9.40;;;;;;;13.82;100.00;95572.72;2050255;29;20442;-64
2023/07/29 02:08:46;;;;;;;17.40;9.45;;;;;;;13.84;100.00;95576.09;2050201;29;20043;-65
2023/07/29 02:09:48;;;;;;;16.63;8.95;;;;;;;13.81;100.00;95577.13;2058257;28;20047;-64
2023/07/29 02:10:49;;;;;;;14.48;9.68;;;;;;;13.83;100.00;95566.59;2050912;29;20053;-63
2023/07/29 02:11:51;;;;;;;15.32;9.90;;;;;;;13.80;100.00;95565.03;2042348;29;20060;-65
2023/07/29 02:12:52;;;;;;;14.35;9.63;;;;;;;13.82;100.00;95570.13;2042546;29;20047;-65
2023/07/29 02:13:54;;;;;;;14.18;9.43;;;;;;;13.82;100.00;95570.97;2050403;28;20498;-65
2023/07/29 02:14:55;;;;;;;19.77;9.95;;;;;;;13.73;100.00;95555.09;2050083;29;20525;-64
2023/07/29 02:15:56;;;;;;;19.60;9.63;;;;;;;13.81;100.00;95578.91;2050204;29;20039;-64
2023/07/29 02:16:57;;;;;;;15.20;9.25;;;;;;;13.70;100.00;95556.13;2058117;28;20046;-66
2023/07/29 02:17:59;;;;;;;14.00;9.20;;;;;;;13.81;100.00;95573.69;2050365;28;20426;-65
2023/07/29 02:19:00;;;;;;;15.35;9.82;;;;;;;13.81;100.00;95577.13;2050416;29;20511;-64
2023/07/29 02:20:01;;;;;;;15.88;9.98;;;;;;;13.72;100.00;95561.25;2050079;29;20043;-65
2023/07/29 02:21:02;;;;;;;13.45;9.55;;;;;;;13.84;100.00;95574.31;2041934;29;20056;-64
2023/07/29 02:22:04;;;;;;;16.65;10.48;;;;;;;13.84;100.00;95578.69;2050275;29;20055;-64
2023/07/29 02:23:05;;;;;;;17.55;9.93;;;;;;;13.83;100.00;95572.66;2058149;28;20046;-64
2023/07/29 02:24:06;;;;;;;13.48;10.07;;;;;;;13.84;100.00;95578.69;2050338;28;20435;-64
2023/07/29 02:25:07;;;;;;;14.43;9.40;;;;;;;13.81;100.00;95568.47;2050157;29;20039;-64
2023/07/29 02:26:08;;;;;;;17.17;10.13;;;;;;;13.80;100.00;95569.41;2050687;28;20450;-64
2023/07/29 02:27:10;;;;;;;16.40;9.80;;;;;;;13.74;100.00;95556.75;2050177;29;20054;-64
2023/07/29 02:28:11;;;;;;;14.05;9.77;;;;;;;13.74;100.00;95557.63;2042438;29;20048;-64
2023/07/29 02:29:12;;;;;;;14.50;10.20;;;;;;;13.81;100.00;95571.91;2050065;29;20047;-64
2023/07/29 02:30:13;;;;;;;16.70;10.20;;;;;;;13.80;100.00;95572.84;2050885;29;20058;-64
2023/07/29 02:31:20;;;;;;;18.65;10.13;;;;;;;13.78;100.00;95569.50;2050047;29;20051;-64
2023/07/29 02:32:21;;;;;;;18.33;9.82;;;;;;;13.81;100.00;95582.34;2050011;29;20483;-64
2023/07/29 02:33:22;;;;;;;14.93;9.55;;;;;;;13.80;100.00;95572.84;2050216;29;20051;-64
2023/07/29 02:34:23;;;;;;;14.07;8.95;;;;;;;13.80;100.00;95572.84;2050437;29;20047;-65
2023/07/29 02:35:25;;;;;;;16.52;10.48;;;;;;;13.72;100.00;95559.47;2049950;29;20055;-63
2023/07/29 02:36:26;;;;;;;17.90;10.77;;;;;;;13.81;100.00;95571.06;2050034;29;20055;-63
2023/07/29 02:37:27;;;;;;;14.20;9.18;;;;;;;13.78;100.00;95572.13;2041766;29;20059;-64
2023/07/29 02:38:28;;;;;;;15.13;9.45;;;;;;;13.78;100.00;95564.28;2049935;29;20058;-64
2023/07/29 02:39:29;;;;;;;17.50;9.18;;;;;;;13.78;100.00;95569.50;2050699;29;20043;-65
2023/07/29 02:40:30;;;;;;;16.52;9.45;;;;;;;13.76;100.00;95566.16;2051343;28;20051;-64
2023/07/29 02:41:31;;;;;;;18.73;9.80;;;;;;;13.77;100.00;95573.06;2049953;29;20059;-64
2023/07/29 02:42:33;;;;;;;15.80;9.85;;;;;;;13.77;100.00;95572.22;2050048;29;20059;-64
2023/07/29 02:43:34;;;;;;;15.85;9.65;;;;;;;13.78;100.00;95576.50;2050608;29;20043;-64
2023/07/29 02:44:35;;;;;;;16.15;10.40;;;;;;;13.78;100.00;95573.91;2049961;29;20051;-65
2023/07/29 02:45:36;;;;;;;17.08;9.88;;;;;;;13.76;100.00;95573.97;2050111;29;20074;-64
2023/07/29 02:46:37;;;;;;;16.73;9.90;;;;;;;13.76;100.00;95573.16;2050173;29;20062;-65
2023/07/29 02:47:38;;;;;;;19.25;9.77;;;;;;;13.78;100.00;95566.06;2049897;29;20062;-64
2023/07/29 02:48:39;;;;;;;17.08;9.35;;;;;;;13.77;100.00;95567.00;2050524;29;20047;-65
2023/07/29 02:49:41;;;;;;;16.40;9.68;;;;;;;13.76;100.00;95566.16;2050359;28;20051;-64
2023/07/29 02:50:42;;;;;;;16.05;8.57;;;;;;;13.74;100.00;95560.22;2049807;28;20051;-64
2023/07/29 02:51:43;;;;;;;19.95;9.77;;;;;;;13.74;100.00;95560.22;2050345;29;20043;-64
2023/07/29 02:52:44;;;;;;;16.08;9.70;;;;;;;13.75;100.00;95556.66;2050522;29;20069;-64
2023/07/29 02:53:45;;;;;;;18.73;9.43;;;;;;;13.77;100.00;95559.19;2050077;28;20039;-64
2023/07/29 02:54:46;;;;;;;17.67;9.30;;;;;;;13.80;100.00;95566.81;2050030;29;20054;-64
2023/07/29 02:55:47;;;;;;;14.57;9.25;;;;;;;13.80;100.00;95558.97;2057616;28;20055;-65
2023/07/29 02:56:50;;;;;;;13.10;9.20;;;;;;;13.78;100.00;95561.66;2050091;28;20043;-64
2023/07/29 02:57:51;;;;;;;17.17;9.00;;;;;;;13.78;100.00;95560.84;2050013;29;20054;-65
2023/07/29 02:58:52;;;;;;;18.55;9.65;;;;;;;13.80;100.00;95556.38;2049974;29;20050;-64
2023/07/29 02:59:53;;;;;;;17.40;9.82;;;;;;;13.80;100.00;95557.19;2049832;29;20621;-64
2023/07/29 03:00:54;;;;;;;13.18;8.55;;;;;;;13.75;100.00;95554.06;2050116;29;20054;-64
2023/07/29 03:01:55;;;;;;;19.20;8.60;;;;;;;13.74;100.00;95551.53;2050098;28;20111;-64
2023/07/29 03:02:56;;;;;;;13.82;8.32;;;;;;;13.74;100.00;95556.75;2041885;29;20051;-64
2023/07/29 03:03:57;;;;;;;13.70;8.98;;;;;;;13.71;100.00;95555.19;2050033;29;20043;-65
2023/07/29 03:04:58;;;;;;;13.50;8.77;;;;;;;13.71;100.00;95556.97;2049831;29;20054;-64
2023/07/29 03:06:01;;;;;;;13.93;8.55;;;;;;;13.70;100.00;95550.91;2041859;29;20054;-64
2023/07/29 03:07:02;;;;;;;14.20;8.98;;;;;;;13.69;100.00;95557.09;2041643;29;20039;-64
2023/07/29 03:08:03;;;;;;;14.90;8.80;;;;;;;13.61;100.00;95541.94;2034041;29;20059;-64
2023/07/29 03:09:05;;;;;;;17.58;8.73;;;;;;;13.69;100.00;95551.88;2041986;29;20399;-64
2023/07/29 03:10:06;;;;;;;14.75;9.40;;;;;;;13.65;100.00;95547.78;2049894;29;20043;-65
2023/07/29 03:11:11;;;;;;;14.98;9.15;;;;;;;13.64;100.00;95552.16;2050079;28;20505;-64
2023/07/29 03:12:12;;;;;;;14.20;8.60;;;;;;;13.63;100.00;95553.09;2049865;29;20046;-64
2023/07/29 03:13:13;;;;;;;13.60;8.30;;;;;;;13.63;100.00;95562.69;2049750;29;20047;-65
2023/07/29 03:14:14;;;;;;;19.70;9.25;;;;;;;13.60;100.00;95555.06;2050272;28;20490;-64
2023/07/29 03:15:15;;;;;;;15.85;8.95;;;;;;;13.52;100.00;95549.53;2049869;28;20059;-64
2023/07/29 03:16:17;;;;;;;13.73;9.45;;;;;;;13.54;100.00;95551.09;2050062;29;20059;-63
2023/07/29 03:17:24;;;;;;;12.75;8.70;;;;;;;13.54;100.00;95552.88;2049940;29;20043;-63
2023/07/29 03:18:25;;;;;;;15.18;9.45;;;;;;;13.56;100.00;95561.44;2049769;29;20438;-63
2023/07/29 03:19:27;;;;;;;13.48;8.18;;;;;;;13.56;100.00;95558.84;2049877;29;20058;-63
2023/07/29 03:20:28;;;;;;;16.05;8.73;;;;;;;13.56;100.00;95564.88;2049985;29;20062;-63
2023/07/29 03:21:29;;;;;;;14.98;7.93;;;;;;;13.55;100.00;95560.59;2057930;28;20054;-64
2023/07/29 03:22:30;;;;;;;12.55;8.30;;;;;;;13.59;100.00;95558.63;2049739;29;20051;-63
2023/07/29 03:23:32;;;;;;;9.52;7.82;;;;;;;13.57;100.00;95563.09;2050289;29;20054;-63
2023/07/29 03:24:33;;;;;;;15.25;7.85;;;;;;;13.55;100.00;95558.00;2050308;28;20054;-64
2023/07/29 03:25:34;;;;;;;12.73;7.18;;;;;;;13.54;100.00;95561.53;2050290;29;20069;-63
2023/07/29 03:26:35;;;;;;;11.75;6.70;;;;;;;13.51;100.00;95556.50;2050294;29;20047;-64
2023/07/29 03:27:36;;;;;;;12.18;7.10;;;;;;;13.45;100.00;95549.09;2041672;29;20051;-63
2023/07/29 03:28:40;;;;;;;10.60;6.85;;;;;;;13.51;100.00;95556.50;2041697;29;20051;-64
2023/07/29 03:29:41;;;;;;;13.57;7.50;;;;;;;13.49;100.00;95558.38;2041928;29;20067;-64
2023/07/29 03:30:42;;;;;;;12.73;7.45;;;;;;;13.48;100.00;95563.72;2041886;29;20058;-64
2023/07/29 03:31:43;;;;;;;10.95;6.78;;;;;;;13.46;100.00;95556.81;2041284;29;20062;-63
2023/07/29 03:32:47;;;;;;;15.70;8.52;;;;;;;13.44;100.00;95553.50;2042103;29;20494;-64
2023/07/29 03:33:48;;;;;;;15.43;7.95;;;;;;;13.46;100.00;95548.16;2049564;29;20039;-64
2023/07/29 03:34:49;;;;;;;13.20;7.97;;;;;;;13.43;100.00;95551.78;2049159;28;20058;-63
2023/07/29 03:35:50;;;;;;;12.77;7.68;;;;;;;13.42;100.00;95562.34;2049764;28;20054;-64
2023/07/29 03:36:51;;;;;;;12.13;7.80;;;;;;;13.40;100.00;95551.16;2049983;28;20047;-64
2023/07/29 03:37:53;;;;;;;17.80;7.97;;;;;;;13.41;100.00;95551.06;2049920;28;20043;-64
2023/07/29 03:38:54;;;;;;;16.10;8.05;;;;;;;13.37;100.00;95549.59;2057607;28;20053;-63
2023/07/29 03:39:55;;;;;;;12.75;7.35;;;;;;;13.36;100.00;95547.06;2050180;29;20046;-63
2023/07/29 03:40:56;;;;;;;17.75;7.85;;;;;;;13.35;100.00;95546.25;2050457;28;20058;-64
2023/07/29 03:41:58;;;;;;;12.57;7.25;;;;;;;13.28;100.00;95539.75;2050125;29;20070;-64
2023/07/29 03:42:59;;;;;;;15.18;6.85;;;;;;;13.35;100.00;95550.63;2050225;29;20058;-64
2023/07/29 03:44:00;;;;;;;13.32;7.35;;;;;;;13.35;100.00;95548.03;2050160;29;20051;-64
2023/07/29 03:45:01;;;;;;;11.43;7.47;;;;;;;13.34;100.00;95544.59;2048912;29;20062;-64
2023/07/29 03:46:02;;;;;;;14.80;8.43;;;;;;;13.32;100.00;95545.63;2052268;28;20494;-64
2023/07/29 03:47:03;;;;;;;16.75;8.32;;;;;;;13.30;100.00;95548.31;2049460;29;20047;-64
2023/07/29 03:48:05;;;;;;;14.68;7.05;;;;;;;13.29;100.00;95546.66;2041549;29;20511;-64
2023/07/29 03:49:06;;;;;;;15.85;7.93;;;;;;;13.30;100.00;95544.88;2041197;29;20051;-64
2023/07/29 03:50:08;;;;;;;12.98;8.25;;;;;;;13.29;100.00;95543.22;2049426;29;20438;-64
2023/07/29 03:51:09;;;;;;;19.65;8.43;;;;;;;13.29;100.00;95545.81;2041561;29;20554;-64
2023/07/29 03:52:10;;;;;;;15.57;7.05;;;;;;;13.29;100.00;95538.00;2041782;29;20090;-64
2023/07/29 03:53:11;;;;;;;15.73;7.70;;;;;;;13.28;100.00;95538.91;2057490;28;20073;-64
2023/07/29 03:54:13;;;;;;;16.00;7.93;;;;;;;13.29;100.00;95538.84;2057343;28;20050;-64
2023/07/29 03:55:14;;;;;;;17.10;8.07;;;;;;;13.29;100.00;95538.84;2049625;29;20051;-63
2023/07/29 03:56:15;;;;;;;12.73;7.88;;;;;;;13.27;100.00;95530.28;2049500;29;20422;-63
2023/07/29 03:57:16;;;;;;;13.63;7.82;;;;;;;13.30;100.00;95537.06;2050087;29;20054;-63
2023/07/29 03:58:17;;;;;;;16.77;8.35;;;;;;;13.32;100.00;95528.19;2049545;28;20055;-63
2023/07/29 03:59:18;;;;;;;14.43;7.85;;;;;;;13.34;100.00;95531.53;2049477;29;20442;-63
2023/07/29 04:00:19;;;;;;;9.85;6.68;;;;;;;13.33;100.00;95524.63;2041431;29;20054;-63
2023/07/29 04:01:23;;;;;;;11.40;7.32;;;;;;;13.36;100.00;95528.81;2041808;29;20055;-64
2023/07/29 04:02:24;;;;;;;13.63;7.93;;;;;;;13.37;100.00;95530.50;2049402;28;20058;-63
2023/07/29 04:03:26;;;;;;;10.65;6.47;;;;;;;13.34;100.00;95523.72;2041030;29;20047;-64
2023/07/29 04:04:28;;;;;;;16.65;7.88;;;;;;;13.35;100.00;95541.03;2041658;29;20167;-64
2023/07/29 04:05:29;;;;;;;11.30;6.18;;;;;;;13.37;100.00;95538.34;2041160;29;20063;-64
2023/07/29 04:06:30;;;;;;;15.43;7.63;;;;;;;13.36;100.00;95536.66;2041464;29;20047;-64
2023/07/29 04:07:31;;;;;;;14.65;7.20;;;;;;;13.38;100.00;95535.63;2041479;29;20047;-64
2023/07/29 04:08:32;;;;;;;11.75;6.80;;;;;;;13.28;100.00;95524.09;2049429;29;20074;-64
2023/07/29 04:09:34;;;;;;;13.00;7.13;;;;;;;13.39;100.00;95539.03;2049234;29;20442;-64
2023/07/29 04:10:35;;;;;;;10.65;7.28;;;;;;;13.41;100.00;95537.19;2041769;29;20055;-64
2023/07/29 04:11:38;;;;;;;10.23;7.03;;;;;;;13.38;100.00;95540.81;2041817;29;20039;-64
2023/07/29 04:12:40;;;;;;;14.98;7.18;;;;;;;13.39;100.00;95542.53;2049290;28;20059;-64
2023/07/29 04:13:41;;;;;;;13.88;6.97;;;;;;;13.39;100.00;95534.69;2049513;29;20055;-64
2023/07/29 04:14:42;;;;;;;12.20;7.50;;;;;;;13.39;100.00;95531.22;2049269;29;20047;-64
2023/07/29 04:15:43;;;;;;;14.20;6.95;;;;;;;13.27;100.00;95505.97;2049724;29;20055;-64
2023/07/29 04:16:45;;;;;;;9.02;6.22;;;;;;;13.51;100.00;95529.59;2052211;28;20047;-64
2023/07/29 04:17:46;;;;;;;9.75;6.45;;;;;;;13.62;100.00;95527.09;2041426;29;20061;-64
2023/07/29 04:18:47;;;;;;;13.80;6.40;;;;;;;13.74;100.00;95528.91;2049296;29;20047;-64
2023/07/29 04:19:48;;;;;;;11.43;5.95;;;;;;;13.93;100.00;95528.50;2049521;29;20404;-64
2023/07/29 04:20:49;;;;;;;11.55;5.32;;;;;;;14.12;100.00;95530.69;2048913;29;20058;-64
2023/07/29 04:21:50;;;;;;;11.57;5.70;;;;;;;14.16;100.00;95516.47;2049344;29;20062;-64
2023/07/29 04:22:51;;;;;;;8.73;5.00;;;;;;;14.40;100.00;95528.78;2049967;29;20047;-63
2023/07/29 04:23:53;;;;;;;9.48;5.30;;;;;;;14.46;100.00;95528.34;2049805;29;20043;-63
2023/07/29 04:24:54;;;;;;;11.48;5.65;;;;;;;14.51;100.00;95521.88;2049792;29;20051;-63
2023/07/29 04:25:55;;;;;;;11.50;4.95;;;;;;;14.81;100.00;95520.66;2049955;29;20403;-63
2023/07/29 04:26:56;;;;;;;13.18;5.50;;;;;;;15.05;99.48;95525.06;2049331;28;20050;-63
2023/07/29 04:27:58;;;;;;;7.47;4.63;;;;;;;15.17;98.21;95527.63;2049423;29;20050;-63
2023/07/29 04:28:59;;;;;;;8.27;4.78;;;;;;;15.26;96.61;95515.63;2049907;29;20054;-63
2023/07/29 04:30:00;;;;;;;9.73;5.10;;;;;;;15.41;95.23;95516.31;2049678;29;20058;-64
2023/07/29 04:31:01;;;;;;;12.45;4.13;;;;;;;15.47;94.08;95512.41;2049221;29;20371;-63
2023/07/29 04:32:03;;;;;;;11.80;6.00;;;;;;;15.62;93.89;95512.09;2041460;29;20054;-63
2023/07/29 04:33:04;;;;;;;11.25;4.60;;;;;;;15.72;92.49;95520.13;2049368;29;20120;-63
2023/07/29 04:34:05;;;;;;;9.43;4.30;;;;;;;15.94;93.37;95513.28;2049724;29;20050;-63
2023/07/29 04:35:08;;;;;;;8.52;4.13;;;;;;;16.18;92.45;95511.38;2049147;29;20047;-64
2023/07/29 04:36:11;;;;;;;8.20;4.60;;;;;;;16.36;91.38;95501.28;2049266;29;20047;-64
2023/07/29 04:37:12;;;;;;;5.88;4.05;;;;;;;16.27;90.08;95504.59;2049729;29;20043;-63
2023/07/29 04:38:13;;;;;;;12.35;4.32;;;;;;;16.44;89.98;95501.50;2049841;29;20039;-64
2023/07/29 04:39:15;;;;;;;9.05;4.40;;;;;;;16.43;88.38;95505.06;2049335;29;20047;-63
2023/07/29 04:40:16;;;;;;;6.72;4.30;;;;;;;16.35;88.87;95507.44;2049171;29;20051;-63
2023/07/29 04:41:17;;;;;;;8.38;4.45;;;;;;;16.25;89.01;95503.88;2049346;28;20043;-63
2023/07/29 04:42:18;;;;;;;9.60;5.28;;;;;;;16.01;89.63;95515.31;2049056;29;20050;-63
2023/07/29 04:43:19;;;;;;;11.80;4.53;;;;;;;16.09;90.37;95515.56;2049119;29;20066;-63
2023/07/29 04:44:21;;;;;;;10.18;4.13;;;;;;;16.26;90.39;95509.00;2049897;29;20047;-63
2023/07/29 04:45:22;;;;;;;8.35;4.30;;;;;;;16.44;89.43;95505.88;2049768;29;20054;-64
2023/07/29 04:46:25;;;;;;;12.02;4.50;;;;;;;16.76;88.58;95509.44;2049040;29;20605;-63
2023/07/29 04:47:26;;;;;;;7.03;4.32;;;;;;;17.04;86.84;95501.19;2049280;29;20051;-63
2023/07/29 04:48:27;;;;;;;6.72;4.25;;;;;;;17.22;85.89;95510.19;2049275;29;20077;-63